Gakona, AK (99586)

5:00 AM AKDT on October 24, 2014 (GMT -0800)
Copper Bluff Subdivision | Change Station
CLOSE
Current Station
Personal Weather Station
Location: Gakona, AK
Elevation: 1625 ft
Nearby Weather Stations

Elev 1625 ft 62.29 °N, 145.34 °W | Updated 1 minute ago

Overcast
Overcast
24.8 °F
Feels Like 25 °F
N
0.0
Wind Variable Wind from NNE
Gusts 0.0 mph

Today
High -- | Low -- °F
--% Chance of Precip.
Yesterday
High -- | Low -- °F
Precip. -- in
8:52 AM 5:57 PM
New Moon, 0% visible
Pressure 29.85 in
Visibility 10.0 miles
Clouds Overcast 2200 ft
Windchill 25 °F
Dew Point 24 °F
Humidity 96%
Rainfall 0.00 in
Snow Depth Not available.
UV 0.0 out of 12
Pollen Not available.
Air Quality Not available.
Flu Activity Sporadic
METAR PAGK 241253Z AUTO 00000KT 10SM OVC022 M04/M05 A2975 RMK AO2 SLP107 T10391050 TSNO

More Conditions Fewer Conditions

Pressure 29.85 in
Visibility 10.0 miles
Clouds Overcast 2200 ft
Windchill 25 °F
Dew Point 24 °F
Humidity 96%
Rainfall 0.00 in
Snow Depth Not available.
UV 0.0 out of 12
Pollen Not available.
Air Quality Not available.
Flu Activity Sporadic
METAR PAGK 241253Z AUTO 00000KT 10SM OVC022 M04/M05 A2975 RMK AO2 SLP107 T10391050 TSNO

More Conditions Fewer Conditions

10-Day Weather Forecast

Almanac

Astronomy

Oct. 24, 2014 Rise Set
Actual Time 8:52 AM AKDT 5:57 PM AKDT
Civil Twilight 8:04 AM AKDT 6:44 PM AKDT
Nautical Twilight 7:12 AM AKDT 7:37 PM AKDT
Astronomical Twilight 6:20 AM AKDT 8:28 PM AKDT
Moon 9:54 AM AKDT 6:26 PM AKDT
Length of Visible Light 10h 40m
Length of Day
9h 05m
Tomorrow will be 5m 54s shorter.
New Moon, 0% of the Moon is Illuminated
Today
New Moon
Oct 30
First Quarter
Nov 6
Full
Nov 14
Last Quarter
Nov 22
New

Today's Extremes

State Highs State Lows

Community

WunderPhotos

Upload Photos

1,764,543 photos uploaded!

Nearby

Snow Depth

Station Depth Elevation
Upper Tsaina River 9 in 1750 ft
Granite Creek 7 in 1240 ft
Moraine 0 in 2100 ft
Susitna Valley High 0 in 375 ft
Indian Pass 7 in 2300 ft

Earthquake Activity

City Distance Mag. Time & Date
No recent earthquake activity has been reported nearby.
Minimum magnitude displayed is 2.5.

Coastal Water Temperatures

Place Temperature
No Stations Reporting

Nearby Weather Stations